createdAt,value
2023-05-16T00:00:27.093Z,500.00
2023-05-16T00:01:26.848Z,500.00
2023-05-16T00:02:26.913Z,500.00
2023-05-16T00:03:26.916Z,452.00
2023-05-16T00:04:26.874Z,438.00
2023-05-16T00:05:26.834Z,442.00
2023-05-16T00:06:26.820Z,446.00
2023-05-16T00:07:26.811Z,459.00
2023-05-16T00:08:26.800Z,484.00
2023-05-16T00:09:26.808Z,500.00
2023-05-16T00:10:26.946Z,500.00
2023-05-16T00:11:26.788Z,500.00
2023-05-16T00:12:26.780Z,501.00
2023-05-16T00:13:26.799Z,500.00
2023-05-16T00:14:26.769Z,499.00
2023-05-16T00:15:26.830Z,500.00
2023-05-16T00:16:26.885Z,501.00
2023-05-16T00:17:26.906Z,503.00
2023-05-16T00:18:26.934Z,501.00
2023-05-16T00:19:26.983Z,506.00
2023-05-16T00:20:27.369Z,500.00
2023-05-16T00:21:27.073Z,504.00
2023-05-16T00:22:27.096Z,500.00
2023-05-16T00:23:27.135Z,503.00
2023-05-16T00:24:27.178Z,500.00
2023-05-16T00:25:27.225Z,500.00
2023-05-16T00:26:27.262Z,500.00
2023-05-16T00:27:27.297Z,500.00
2023-05-16T00:28:27.343Z,507.00
2023-05-16T00:29:27.398Z,501.00
2023-05-16T00:30:27.629Z,500.00
2023-05-16T00:31:27.482Z,506.00
2023-05-16T00:32:27.510Z,504.00
2023-05-16T00:33:27.517Z,503.00
2023-05-16T00:34:27.612Z,499.00
2023-05-16T00:35:27.593Z,504.00
2023-05-16T00:36:27.635Z,502.00
2023-05-16T00:37:27.666Z,501.00
2023-05-16T00:38:27.713Z,500.00
2023-05-16T00:39:27.747Z,500.00
2023-05-16T00:40:27.929Z,502.00
2023-05-16T00:41:27.881Z,500.00
2023-05-16T00:42:27.865Z,503.00
2023-05-16T00:43:27.914Z,504.00
2023-05-16T00:44:27.941Z,501.00
2023-05-16T00:45:28.017Z,503.00
2023-05-16T00:46:28.094Z,507.00
2023-05-16T00:47:28.100Z,507.00
2023-05-16T00:48:28.098Z,502.00
2023-05-16T00:49:28.129Z,502.00
2023-05-16T00:50:28.385Z,500.00
2023-05-16T00:51:28.211Z,504.00
2023-05-16T00:52:28.247Z,503.00
2023-05-16T00:53:28.288Z,501.00
2023-05-16T00:54:28.334Z,504.00
2023-05-16T00:55:28.373Z,508.00
2023-05-16T00:56:28.397Z,505.00
2023-05-16T00:57:28.440Z,505.00
2023-05-16T00:58:28.482Z,506.00
2023-05-16T00:59:28.513Z,504.00
2023-05-16T01:00:28.674Z,504.00
2023-05-16T01:01:28.721Z,505.00
2023-05-16T01:02:28.717Z,504.00
2023-05-16T01:03:28.777Z,503.00
2023-05-16T01:04:28.698Z,502.00
2023-05-16T01:05:28.962Z,506.00
2023-05-16T01:06:28.784Z,500.00
2023-05-16T01:07:28.830Z,503.00
2023-05-16T01:08:28.856Z,503.00
2023-05-16T01:09:28.892Z,506.00
2023-05-16T01:10:28.983Z,503.00
2023-05-16T01:11:28.972Z,501.00
2023-05-16T01:12:28.999Z,502.00
2023-05-16T01:13:29.053Z,501.00
2023-05-16T01:14:29.078Z,509.00
2023-05-16T01:15:29.454Z,503.00
2023-05-16T01:16:29.286Z,504.00
2023-05-16T01:17:29.286Z,505.00
2023-05-16T01:18:29.268Z,502.00
2023-05-16T01:19:29.507Z,503.00
2023-05-16T01:20:29.292Z,502.00
2023-05-16T01:21:29.324Z,507.00
2023-05-16T01:22:29.368Z,504.00
2023-05-16T01:23:29.396Z,505.00
2023-05-16T01:24:29.433Z,504.00
2023-05-16T01:25:29.555Z,507.00
2023-05-16T01:26:29.510Z,502.00
2023-05-16T01:27:29.557Z,504.00
2023-05-16T01:28:29.592Z,504.00
2023-05-16T01:29:29.611Z,507.00
2023-05-16T01:30:29.649Z,503.00
2023-05-16T01:31:29.693Z,503.00
2023-05-16T01:32:29.740Z,500.00
2023-05-16T01:33:29.846Z,507.00
2023-05-16T01:34:29.795Z,502.00
2023-05-16T01:35:29.832Z,502.00
2023-05-16T01:36:29.863Z,504.00
2023-05-16T01:37:29.904Z,500.00
2023-05-16T01:38:29.949Z,500.00
2023-05-16T01:39:29.988Z,507.00
2023-05-16T01:40:30.027Z,504.00
2023-05-16T01:41:30.066Z,505.00
2023-05-16T01:42:30.106Z,502.00
2023-05-16T01:43:30.603Z,504.00
2023-05-16T01:44:30.182Z,504.00
2023-05-16T01:45:30.339Z,500.00
2023-05-16T01:46:30.296Z,501.00
2023-05-16T01:47:30.298Z,505.00
2023-05-16T01:48:30.343Z,506.00
2023-05-16T01:49:30.390Z,500.00
2023-05-16T01:50:30.406Z,501.00
2023-05-16T01:51:30.441Z,501.00
2023-05-16T01:52:30.478Z,501.00
2023-05-16T01:53:30.525Z,500.00
2023-05-16T01:54:30.552Z,500.00
2023-05-16T01:55:30.608Z,501.00
2023-05-16T01:56:30.633Z,500.00
2023-05-16T01:57:30.663Z,507.00
2023-05-16T01:58:30.710Z,501.00
2023-05-16T01:59:30.742Z,505.00
2023-05-16T02:00:30.786Z,501.00
2023-05-16T02:01:30.881Z,503.00
2023-05-16T02:02:30.888Z,505.00
2023-05-16T02:03:30.974Z,504.00
2023-05-16T02:04:30.952Z,504.00
2023-05-16T02:05:31.073Z,504.00
2023-05-16T02:06:31.029Z,501.00
2023-05-16T02:07:31.069Z,500.00
2023-05-16T02:08:31.113Z,503.00
2023-05-16T02:09:31.153Z,503.00
2023-05-16T02:10:31.185Z,502.00
2023-05-16T02:11:31.221Z,504.00
2023-05-16T02:12:31.256Z,504.00
2023-05-16T02:13:31.299Z,501.00
2023-05-16T02:14:31.339Z,500.00
2023-05-16T02:15:31.375Z,502.00
2023-05-16T02:16:31.470Z,500.00
2023-05-16T02:17:31.486Z,506.00
2023-05-16T02:18:31.549Z,504.00
2023-05-16T02:19:31.559Z,508.00
2023-05-16T02:20:31.596Z,504.00
2023-05-16T02:21:31.666Z,507.00
2023-05-16T02:22:31.681Z,501.00
2023-05-16T02:23:31.732Z,508.00
2023-05-16T02:24:31.775Z,503.00
2023-05-16T02:25:31.809Z,503.00
2023-05-16T02:26:31.847Z,500.00
2023-05-16T02:27:31.889Z,500.00
2023-05-16T02:28:31.930Z,503.00
2023-05-16T02:29:31.994Z,504.00
2023-05-16T02:30:32.064Z,500.00
2023-05-16T02:31:32.428Z,507.00
2023-05-16T02:32:32.163Z,503.00
2023-05-16T02:33:32.137Z,502.00
2023-05-16T02:34:32.177Z,502.00
2023-05-16T02:35:32.231Z,500.00
2023-05-16T02:36:32.269Z,505.00
2023-05-16T02:37:32.329Z,503.00
2023-05-16T02:38:32.353Z,500.00
2023-05-16T02:39:32.382Z,503.00
2023-05-16T02:40:32.429Z,504.00
2023-05-16T02:41:32.457Z,503.00
2023-05-16T02:42:32.521Z,505.00
2023-05-16T02:43:32.551Z,509.00
2023-05-16T02:44:32.634Z,504.00
2023-05-16T02:45:32.671Z,502.00
2023-05-16T02:46:32.746Z,506.00
2023-05-16T02:47:32.796Z,506.00
2023-05-16T02:48:32.753Z,504.00
2023-05-16T02:49:32.795Z,506.00
2023-05-16T02:50:32.844Z,505.00
2023-05-16T02:51:32.911Z,508.00
2023-05-16T02:52:32.911Z,502.00
2023-05-16T02:53:32.973Z,506.00
2023-05-16T02:54:32.987Z,503.00
2023-05-16T02:55:33.028Z,500.00
2023-05-16T02:56:33.074Z,506.00
2023-05-16T02:57:33.111Z,507.00
2023-05-16T02:58:33.155Z,506.00
2023-05-16T02:59:33.199Z,509.00
2023-05-16T03:00:33.275Z,505.00
2023-05-16T03:01:33.355Z,502.00
2023-05-16T03:02:33.565Z,507.00
2023-05-16T03:03:33.521Z,505.00
2023-05-16T03:04:33.401Z,506.00
2023-05-16T03:05:33.526Z,507.00
2023-05-16T03:06:33.480Z,504.00
2023-05-16T03:07:33.526Z,504.00
2023-05-16T03:08:33.562Z,509.00
2023-05-16T03:09:33.620Z,507.00
2023-05-16T03:10:33.637Z,504.00
2023-05-16T03:11:33.681Z,503.00
2023-05-16T03:12:33.722Z,507.00
2023-05-16T03:13:33.761Z,508.00
2023-05-16T03:14:33.802Z,508.00
2023-05-16T03:15:33.860Z,507.00
2023-05-16T03:16:34.006Z,510.00
2023-05-16T03:17:33.995Z,513.00
2023-05-16T03:18:34.062Z,506.00
2023-05-16T03:19:34.055Z,508.00
2023-05-16T03:20:34.074Z,508.00
2023-05-16T03:21:34.115Z,503.00
2023-05-16T03:22:34.160Z,506.00
2023-05-16T03:23:34.200Z,506.00
2023-05-16T03:24:34.324Z,509.00
2023-05-16T03:25:34.323Z,509.00
2023-05-16T03:26:34.339Z,505.00
2023-05-16T03:27:34.377Z,508.00
2023-05-16T03:28:34.427Z,505.00
2023-05-16T03:29:34.474Z,504.00
2023-05-16T03:30:34.522Z,508.00
2023-05-16T03:31:34.652Z,506.00
2023-05-16T03:32:34.629Z,506.00
2023-05-16T03:33:34.657Z,504.00
2023-05-16T03:34:34.720Z,505.00
2023-05-16T03:35:34.760Z,501.00
2023-05-16T03:36:34.804Z,507.00
2023-05-16T03:37:34.862Z,503.00
2023-05-16T03:38:34.902Z,504.00
2023-05-16T03:39:34.942Z,508.00
2023-05-16T03:40:34.975Z,503.00
2023-05-16T03:41:35.067Z,503.00
2023-05-16T03:42:35.087Z,504.00
2023-05-16T03:43:35.129Z,507.00
2023-05-16T03:44:35.167Z,507.00
2023-05-16T03:45:35.229Z,503.00
2023-05-16T03:46:35.258Z,503.00
2023-05-16T03:47:35.377Z,502.00
2023-05-16T03:48:35.392Z,500.00
2023-05-16T03:49:35.405Z,501.00
2023-05-16T03:50:35.466Z,502.00
2023-05-16T03:51:35.517Z,505.00
2023-05-16T03:52:35.545Z,502.00
2023-05-16T03:53:35.592Z,507.00
2023-05-16T03:54:35.643Z,509.00
2023-05-16T03:55:35.697Z,506.00
2023-05-16T03:56:35.754Z,505.00
2023-05-16T03:57:35.849Z,505.00
2023-05-16T03:58:35.847Z,504.00
2023-05-16T03:59:35.887Z,507.00
2023-05-16T04:00:35.935Z,500.00
2023-05-16T04:01:35.997Z,503.00
2023-05-16T04:02:36.112Z,503.00
2023-05-16T04:03:36.137Z,503.00
2023-05-16T04:04:36.127Z,503.00
2023-05-16T04:05:36.226Z,506.00
2023-05-16T04:06:36.219Z,507.00
2023-05-16T04:07:36.267Z,509.00
2023-05-16T04:08:36.312Z,505.00
2023-05-16T04:09:36.364Z,501.00
2023-05-16T04:10:36.412Z,501.00
2023-05-16T04:11:36.465Z,505.00
2023-05-16T04:12:36.509Z,503.00
2023-05-16T04:13:36.621Z,503.00
2023-05-16T04:14:36.587Z,504.00
2023-05-16T04:15:36.634Z,503.00
2023-05-16T04:16:36.705Z,507.00
2023-05-16T04:17:36.815Z,504.00
2023-05-16T04:18:36.855Z,503.00
2023-05-16T04:19:36.816Z,505.00
2023-05-16T04:20:36.863Z,503.00
2023-05-16T04:21:36.911Z,503.00
2023-05-16T04:22:36.952Z,502.00
2023-05-16T04:23:36.995Z,500.00
2023-05-16T04:24:37.030Z,503.00
2023-05-16T04:25:37.073Z,505.00
2023-05-16T04:26:37.126Z,504.00
2023-05-16T04:27:37.173Z,508.00
2023-05-16T04:28:37.223Z,506.00
2023-05-16T04:29:37.292Z,507.00
2023-05-16T04:30:37.318Z,506.00
2023-05-16T04:31:37.412Z,502.00
2023-05-16T04:32:37.462Z,507.00
2023-05-16T04:33:37.488Z,506.00
2023-05-16T04:34:39.727Z,501.00
2023-05-16T04:35:37.505Z,514.00
2023-05-16T04:36:37.489Z,507.00
2023-05-16T04:37:37.489Z,507.00
2023-05-16T04:38:37.486Z,501.00
2023-05-16T04:39:37.494Z,502.00
2023-05-16T04:40:37.490Z,503.00
2023-05-16T04:41:37.464Z,505.00
2023-05-16T04:42:37.461Z,504.00
2023-05-16T04:43:37.443Z,504.00
2023-05-16T04:44:37.444Z,505.00
2023-05-16T04:45:37.969Z,504.00
2023-05-16T04:46:37.458Z,508.00
2023-05-16T04:47:37.451Z,505.00
2023-05-16T04:48:37.422Z,510.00
2023-05-16T04:49:37.418Z,505.00
2023-05-16T04:50:37.396Z,511.00
2023-05-16T04:51:37.388Z,510.00
2023-05-16T04:52:37.381Z,500.00
2023-05-16T04:53:37.378Z,504.00
2023-05-16T04:54:37.375Z,506.00
2023-05-16T04:55:37.368Z,503.00
2023-05-16T04:56:37.361Z,504.00
2023-05-16T04:57:37.356Z,500.00
2023-05-16T04:58:37.345Z,507.00
2023-05-16T04:59:37.351Z,509.00
2023-05-16T05:00:37.358Z,500.00
2023-05-16T05:01:37.406Z,501.00
2023-05-16T05:02:37.384Z,507.00
2023-05-16T05:03:37.382Z,506.00
2023-05-16T05:04:37.469Z,505.00
2023-05-16T05:05:37.799Z,504.00
2023-05-16T05:06:37.534Z,506.00
2023-05-16T05:07:37.551Z,503.00
2023-05-16T05:08:37.590Z,501.00
2023-05-16T05:09:37.646Z,503.00
2023-05-16T05:10:37.726Z,504.00
2023-05-16T05:11:37.722Z,503.00
2023-05-16T05:12:37.756Z,508.00
2023-05-16T05:13:37.796Z,501.00
2023-05-16T05:14:37.842Z,504.00
2023-05-16T05:15:37.878Z,502.00
2023-05-16T05:16:37.917Z,504.00
2023-05-16T05:17:38.127Z,504.00
2023-05-16T05:18:38.100Z,503.00
2023-05-16T05:19:38.262Z,503.00
2023-05-16T05:20:38.180Z,506.00
2023-05-16T05:21:38.105Z,511.00
2023-05-16T05:22:38.146Z,523.00
2023-05-16T05:23:38.177Z,519.00
2023-05-16T05:24:38.213Z,521.00
2023-05-16T05:25:38.253Z,519.00
2023-05-16T05:26:38.679Z,514.00
2023-05-16T05:27:38.311Z,514.00
2023-05-16T05:28:39.930Z,514.00
2023-05-16T05:29:39.489Z,516.00
2023-05-16T05:30:40.147Z,512.00
2023-05-16T05:31:38.558Z,518.00
2023-05-16T05:32:38.764Z,518.00
2023-05-16T05:33:38.529Z,512.00
2023-05-16T05:34:38.510Z,513.00
2023-05-16T05:35:38.706Z,518.00
2023-05-16T05:36:38.689Z,521.00
2023-05-16T05:37:38.483Z,522.00
2023-05-16T05:38:38.490Z,528.00
2023-05-16T05:39:38.491Z,530.00
2023-05-16T05:40:38.460Z,530.00
2023-05-16T05:41:38.700Z,534.00
2023-05-16T05:42:38.438Z,532.00
2023-05-16T05:43:38.442Z,532.00
2023-05-16T05:44:38.432Z,538.00
2023-05-16T05:45:38.466Z,535.00
2023-05-16T05:46:38.689Z,540.00
2023-05-16T05:47:38.435Z,540.00
2023-05-16T05:48:38.407Z,541.00
2023-05-16T05:49:38.432Z,540.00
2023-05-16T05:50:38.686Z,540.00
2023-05-16T05:51:38.393Z,546.00
2023-05-16T05:52:38.402Z,546.00
2023-05-16T05:53:38.371Z,547.00
2023-05-16T05:54:38.390Z,562.00
2023-05-16T05:55:38.694Z,565.00
2023-05-16T05:58:53.964Z,584.00
2023-05-16T05:59:41.891Z,584.00
2023-05-16T06:00:38.707Z,585.00
2023-05-16T06:01:38.341Z,594.00
2023-05-16T06:02:38.383Z,608.00
2023-05-16T06:03:38.596Z,629.00
2023-05-16T06:04:38.716Z,667.00
2023-05-16T06:05:39.259Z,685.00
2023-05-16T06:06:38.661Z,740.00
2023-05-16T06:07:41.796Z,742.00
2023-05-16T06:08:41.905Z,744.00
2023-05-16T06:09:38.630Z,745.00
2023-05-16T06:10:45.656Z,754.00
2023-05-16T06:11:38.647Z,747.00
2023-05-16T06:12:38.246Z,761.00
2023-05-16T06:13:39.098Z,785.00
2023-05-16T06:14:38.249Z,796.00
2023-05-16T06:15:38.808Z,777.00
2023-05-16T06:16:38.581Z,670.00
2023-05-16T06:17:38.626Z,651.00
2023-05-16T06:18:38.642Z,641.00
2023-05-16T06:19:38.545Z,625.00
2023-05-16T06:20:38.455Z,614.00
2023-05-16T06:21:38.204Z,609.00
2023-05-16T06:22:38.186Z,600.00
2023-05-16T06:23:38.600Z,584.00
2023-05-16T06:24:38.232Z,589.00
2023-05-16T06:25:38.613Z,582.00
2023-05-16T06:26:38.180Z,560.00
2023-05-16T06:27:38.493Z,549.00
2023-05-16T06:28:38.150Z,552.00
2023-05-16T06:29:38.571Z,546.00
2023-05-16T06:30:38.318Z,545.00
2023-05-16T06:31:38.637Z,551.00
2023-05-16T06:32:38.563Z,576.00
2023-05-16T06:33:38.140Z,594.00
2023-05-16T06:34:38.191Z,601.00
2023-05-16T06:35:38.532Z,608.00
2023-05-16T06:36:38.239Z,614.00
2023-05-16T06:37:39.625Z,609.00
2023-05-16T06:38:38.656Z,609.00
2023-05-16T06:39:38.604Z,610.00
2023-05-16T06:40:39.185Z,610.00
2023-05-16T06:41:38.675Z,614.00
2023-05-16T06:42:38.690Z,619.00
2023-05-16T06:43:38.230Z,623.00
2023-05-16T06:44:38.214Z,622.00
2023-05-16T06:45:39.614Z,621.00
2023-05-16T06:46:54.114Z,627.00
2023-05-16T06:47:41.673Z,628.00
2023-05-16T06:48:38.183Z,628.00
2023-05-16T06:49:38.214Z,628.00
2023-05-16T06:50:38.265Z,626.00
2023-05-16T06:51:41.394Z,620.00
2023-05-16T06:54:38.402Z,628.00
2023-05-16T06:55:41.319Z,630.00
2023-05-16T06:56:38.656Z,628.00
2023-05-16T06:57:41.340Z,629.00
2023-05-16T06:58:38.260Z,628.00
2023-05-16T06:59:38.475Z,628.00
2023-05-16T07:00:38.086Z,629.00
2023-05-16T07:01:38.705Z,627.00
2023-05-16T07:02:38.541Z,632.00
2023-05-16T07:03:38.165Z,626.00
2023-05-16T07:04:38.418Z,624.00
2023-05-16T07:05:38.062Z,627.00
2023-05-16T07:06:38.241Z,620.00
2023-05-16T07:07:38.042Z,624.00
2023-05-16T07:08:38.032Z,621.00
2023-05-16T07:09:38.227Z,619.00
2023-05-16T07:10:41.611Z,619.00
2023-05-16T07:11:39.027Z,619.00
2023-05-16T07:12:41.264Z,620.00
2023-05-16T07:13:38.599Z,619.00
2023-05-16T07:14:38.000Z,619.00
2023-05-16T07:15:38.728Z,620.00
2023-05-16T07:16:38.477Z,620.00
2023-05-16T07:17:38.347Z,620.00
2023-05-16T07:18:38.240Z,614.00
2023-05-16T07:19:38.589Z,618.00
2023-05-16T07:20:37.956Z,618.00
2023-05-16T07:21:37.930Z,621.00
2023-05-16T07:22:38.404Z,614.00
2023-05-16T07:23:41.378Z,616.00
2023-05-16T07:24:39.249Z,616.00
2023-05-16T07:25:38.347Z,617.00
2023-05-16T07:26:38.343Z,618.00
2023-05-16T07:27:38.659Z,616.00
2023-05-16T07:28:38.276Z,613.00
2023-05-16T07:29:38.372Z,617.00
2023-05-16T07:30:38.431Z,613.00
2023-05-16T07:31:39.043Z,617.00
2023-05-16T07:32:38.149Z,610.00
2023-05-16T07:33:37.978Z,607.00
2023-05-16T07:34:38.329Z,608.00
2023-05-16T07:35:45.942Z,610.00
2023-05-16T07:36:45.726Z,611.00
2023-05-16T07:37:45.651Z,611.00
2023-05-16T07:38:38.319Z,611.00
2023-05-16T07:39:38.420Z,615.00
2023-05-16T07:40:38.633Z,618.00
2023-05-16T07:41:39.200Z,626.00
2023-05-16T07:42:37.992Z,639.00
2023-05-16T07:43:38.297Z,639.00
2023-05-16T07:44:41.454Z,644.00
2023-05-16T07:45:38.316Z,644.00
2023-05-16T07:46:38.156Z,645.00
2023-05-16T07:47:37.957Z,645.00
2023-05-16T07:48:38.206Z,648.00
2023-05-16T07:49:37.865Z,650.00
2023-05-16T07:50:38.232Z,663.00
2023-05-16T07:51:37.847Z,679.00
2023-05-16T07:52:38.840Z,693.00
2023-05-16T07:53:37.847Z,704.00
2023-05-16T07:54:37.829Z,706.00
2023-05-16T07:55:38.228Z,730.00
2023-05-16T07:56:38.239Z,746.00
2023-05-16T07:57:37.808Z,759.00
2023-05-16T07:58:37.868Z,793.00
2023-05-16T07:59:37.867Z,796.00
2023-05-16T08:00:37.806Z,801.00
2023-05-16T08:01:38.253Z,805.00
2023-05-16T08:02:37.942Z,829.00
2023-05-16T08:03:53.485Z,821.00
2023-05-16T08:04:38.692Z,821.00
2023-05-16T08:05:37.918Z,690.00
2023-05-16T08:06:38.235Z,712.00
2023-05-16T08:07:37.825Z,629.00
2023-05-16T08:08:37.806Z,617.00
2023-05-16T08:09:37.807Z,593.00
2023-05-16T08:10:38.280Z,568.00
2023-05-16T08:11:38.235Z,566.00
2023-05-16T08:12:37.801Z,642.00
2023-05-16T08:13:37.803Z,662.00
2023-05-16T08:14:38.020Z,671.00
2023-05-16T08:15:37.873Z,675.00
2023-05-16T08:16:38.323Z,669.00
2023-05-16T08:17:38.257Z,667.00
2023-05-16T08:18:38.079Z,669.00
2023-05-16T08:19:38.120Z,677.00
2023-05-16T08:20:38.170Z,689.00
2023-05-16T08:21:38.226Z,692.00
2023-05-16T08:22:38.280Z,706.00
2023-05-16T08:23:38.744Z,717.00
2023-05-16T08:24:38.376Z,725.00
2023-05-16T08:25:46.140Z,737.00
2023-05-16T08:26:38.407Z,739.00
2023-05-16T08:27:45.836Z,744.00
2023-05-16T08:28:38.407Z,741.00
2023-05-16T08:29:38.395Z,752.00
2023-05-16T08:30:41.032Z,768.00
2023-05-16T08:31:38.445Z,743.00
2023-05-16T08:32:38.413Z,758.00
2023-05-16T08:33:46.174Z,787.00
2023-05-16T08:34:38.364Z,743.00
2023-05-16T08:35:38.746Z,764.00
2023-05-16T08:36:38.346Z,799.00
2023-05-16T08:37:38.370Z,857.00
2023-05-16T08:38:38.393Z,918.00
2023-05-16T08:39:38.320Z,938.00
2023-05-16T08:41:38.301Z,953.00
2023-05-16T08:42:38.324Z,960.00
2023-05-16T08:43:38.752Z,972.00
2023-05-16T08:44:38.281Z,999.00
2023-05-16T08:45:41.486Z,1022.00
2023-05-16T08:46:46.344Z,955.00
2023-05-16T08:47:38.316Z,956.00
2023-05-16T08:48:38.761Z,974.00
2023-05-16T08:49:38.764Z,1005.00
2023-05-16T08:50:38.275Z,1047.00
2023-05-16T08:51:38.243Z,1101.00
2023-05-16T08:52:38.236Z,1114.00
2023-05-16T08:53:38.240Z,1113.00
2023-05-16T08:54:38.256Z,1119.00
2023-05-16T08:55:38.220Z,1127.00
2023-05-16T08:56:38.215Z,1129.00
2023-05-16T08:57:38.202Z,1138.00
2023-05-16T08:58:38.199Z,1151.00
2023-05-16T08:59:38.287Z,1165.00
2023-05-16T09:00:38.278Z,1192.00
2023-05-16T09:01:38.382Z,1201.00
2023-05-16T09:02:38.245Z,1196.00
2023-05-16T09:03:41.445Z,1217.00
2023-05-16T09:04:38.156Z,1219.00
2023-05-16T09:05:38.160Z,1226.00
2023-05-16T09:06:38.131Z,1241.00
2023-05-16T09:07:38.152Z,1261.00
2023-05-16T09:08:38.123Z,1307.00
2023-05-16T09:09:38.125Z,1304.00
2023-05-16T09:10:39.118Z,1323.00
2023-05-16T09:11:38.269Z,1326.00
2023-05-16T09:12:38.108Z,1345.00
2023-05-16T09:13:38.095Z,1349.00
2023-05-16T09:14:38.087Z,1374.00
2023-05-16T09:15:38.081Z,1385.00
2023-05-16T09:16:38.328Z,1391.00
2023-05-16T09:17:40.096Z,1420.00
2023-05-16T09:18:38.232Z,1421.00
2023-05-16T09:19:38.120Z,1414.00
2023-05-16T09:20:38.044Z,1423.00
2023-05-16T09:21:38.266Z,1435.00
2023-05-16T09:22:38.033Z,1449.00
2023-05-16T09:23:38.036Z,1440.00
2023-05-16T09:24:38.030Z,1465.00
2023-05-16T09:25:38.186Z,1499.00
2023-05-16T09:26:39.769Z,1504.00
2023-05-16T09:27:38.283Z,1550.00
2023-05-16T09:28:38.290Z,1522.00
2023-05-16T09:29:38.288Z,1523.00
2023-05-16T09:30:38.302Z,1514.00
2023-05-16T09:31:38.890Z,1503.00
2023-05-16T09:32:38.384Z,1496.00
2023-05-16T09:33:38.359Z,1489.00
2023-05-16T09:34:41.644Z,1493.00
2023-05-16T09:35:44.237Z,1493.00
2023-05-16T09:36:43.761Z,1495.00
2023-05-16T09:37:38.365Z,1497.00
2023-05-16T09:38:39.349Z,1501.00
2023-05-16T09:39:38.352Z,1514.00
2023-05-16T09:40:39.270Z,1520.00
2023-05-16T09:41:46.163Z,1514.00
2023-05-16T09:42:38.328Z,1496.00
2023-05-16T09:43:41.658Z,1504.00
2023-05-16T09:44:38.325Z,1497.00
2023-05-16T09:45:38.793Z,1504.00
2023-05-16T09:46:38.935Z,1515.00
2023-05-16T09:47:38.347Z,1536.00
2023-05-16T09:48:38.295Z,1556.00
2023-05-16T09:49:38.276Z,1559.00
2023-05-16T09:50:38.328Z,1544.00
2023-05-16T09:51:38.281Z,1541.00
2023-05-16T09:52:38.283Z,1554.00
2023-05-16T09:53:38.260Z,1548.00
2023-05-16T09:54:38.299Z,1556.00
2023-05-16T09:55:38.279Z,1563.00
2023-05-16T09:56:38.237Z,1580.00
2023-05-16T09:57:38.234Z,1552.00
2023-05-16T09:58:38.280Z,1552.00
2023-05-16T09:59:38.328Z,1535.00
2023-05-16T10:00:38.217Z,1333.00
2023-05-16T10:01:38.258Z,1101.00
2023-05-16T10:02:38.308Z,974.00
2023-05-16T10:03:38.640Z,836.00
2023-05-16T10:04:38.786Z,703.00
2023-05-16T10:05:38.789Z,657.00
2023-05-16T10:06:38.476Z,793.00
2023-05-16T10:07:38.440Z,778.00
2023-05-16T10:08:39.453Z,774.00
2023-05-16T10:09:38.786Z,835.00
2023-05-16T10:10:38.450Z,886.00
2023-05-16T10:11:38.443Z,971.00
2023-05-16T10:12:41.653Z,914.00
2023-05-16T10:13:38.446Z,916.00
2023-05-16T10:14:38.782Z,915.00
2023-05-16T10:15:39.802Z,850.00
2023-05-16T10:16:46.220Z,679.00
2023-05-16T10:17:38.438Z,613.00
2023-05-16T10:18:38.460Z,644.00
2023-05-16T10:19:41.625Z,664.00
2023-05-16T10:20:38.393Z,648.00
2023-05-16T10:21:38.798Z,718.00
2023-05-16T10:22:38.425Z,757.00
2023-05-16T10:23:38.362Z,736.00
2023-05-16T10:24:38.462Z,649.00
2023-05-16T10:25:38.906Z,685.00
2023-05-16T10:26:38.358Z,644.00
2023-05-16T10:27:38.365Z,655.00
2023-05-16T10:28:38.327Z,680.00
2023-05-16T10:29:50.337Z,637.00
2023-05-16T10:30:38.793Z,638.00
2023-05-16T10:31:41.589Z,640.00
2023-05-16T10:32:39.471Z,640.00
2023-05-16T10:33:38.297Z,640.00
2023-05-16T10:34:38.300Z,649.00
2023-05-16T10:35:38.285Z,666.00
2023-05-16T10:36:38.270Z,723.00
2023-05-16T10:37:38.258Z,806.00
2023-05-16T10:38:38.417Z,823.00
2023-05-16T10:39:38.261Z,845.00
2023-05-16T10:40:38.244Z,851.00
2023-05-16T10:41:38.248Z,867.00
2023-05-16T10:42:38.227Z,877.00
2023-05-16T10:43:38.299Z,900.00
2023-05-16T10:44:42.770Z,933.00
2023-05-16T10:45:38.244Z,935.00
2023-05-16T10:46:38.442Z,946.00
2023-05-16T10:47:38.222Z,960.00
2023-05-16T10:48:38.185Z,998.00
2023-05-16T10:49:38.183Z,1061.00
2023-05-16T10:50:38.309Z,1068.00
2023-05-16T10:51:38.188Z,1095.00
2023-05-16T10:52:38.161Z,1114.00
2023-05-16T10:53:38.154Z,1134.00
2023-05-16T10:54:38.236Z,1147.00
2023-05-16T10:55:38.297Z,1169.00
2023-05-16T10:56:38.305Z,1190.00
2023-05-16T10:57:38.132Z,1216.00
2023-05-16T10:58:38.125Z,1240.00
2023-05-16T10:59:38.117Z,1265.00
2023-05-16T11:00:38.303Z,1214.00
2023-05-16T11:01:38.480Z,1074.00
2023-05-16T11:02:38.178Z,932.00
2023-05-16T11:03:38.270Z,1053.00
2023-05-16T11:04:38.109Z,1092.00
2023-05-16T11:05:38.082Z,1052.00
2023-05-16T11:06:38.300Z,1047.00
2023-05-16T11:07:38.074Z,1057.00
2023-05-16T11:08:38.073Z,1071.00
2023-05-16T11:09:38.061Z,1068.00
2023-05-16T11:10:38.270Z,1084.00
2023-05-16T11:11:39.309Z,1127.00
2023-05-16T11:12:38.083Z,1133.00
2023-05-16T11:13:38.187Z,1161.00
2023-05-16T11:14:38.132Z,1185.00
2023-05-16T11:15:38.160Z,1174.00
2023-05-16T11:16:38.398Z,1066.00
2023-05-16T11:17:39.994Z,957.00
2023-05-16T11:18:38.332Z,968.00
2023-05-16T11:19:38.201Z,678.00
2023-05-16T11:20:41.416Z,643.00
2023-05-16T11:21:38.454Z,629.00
2023-05-16T11:22:41.441Z,594.00
2023-05-16T11:23:38.173Z,567.00
2023-05-16T11:24:38.211Z,493.00
2023-05-16T11:25:38.168Z,496.00
2023-05-16T11:26:38.422Z,496.00
2023-05-16T11:27:38.305Z,500.00
2023-05-16T11:28:38.137Z,518.00
2023-05-16T11:29:38.145Z,503.00
2023-05-16T11:30:38.125Z,500.00
2023-05-16T11:31:38.352Z,500.00
2023-05-16T11:32:38.400Z,501.00
2023-05-16T11:33:38.104Z,510.00
2023-05-16T11:34:38.118Z,535.00
2023-05-16T11:35:38.086Z,510.00
2023-05-16T11:36:38.095Z,500.00
2023-05-16T11:37:38.316Z,500.00
2023-05-16T11:38:38.077Z,509.00
2023-05-16T11:39:38.104Z,536.00
2023-05-16T11:40:38.062Z,561.00
2023-05-16T11:41:38.318Z,578.00
2023-05-16T11:42:38.125Z,563.00
2023-05-16T11:43:38.039Z,549.00
2023-05-16T11:44:38.316Z,572.00
2023-05-16T11:45:38.031Z,568.00
2023-05-16T11:46:39.009Z,544.00
2023-05-16T11:47:38.411Z,567.00
2023-05-16T11:48:38.122Z,600.00
2023-05-16T11:49:38.002Z,633.00
2023-05-16T11:50:37.996Z,571.00
2023-05-16T11:51:38.332Z,523.00
2023-05-16T11:52:38.342Z,517.00
2023-05-16T11:53:38.143Z,545.00
2023-05-16T11:54:38.705Z,559.00
2023-05-16T11:55:42.115Z,577.00
2023-05-16T11:56:38.221Z,578.00
2023-05-16T11:57:38.320Z,580.00
2023-05-16T11:58:38.293Z,585.00
2023-05-16T11:59:38.289Z,598.00
2023-05-16T12:00:38.291Z,623.00
2023-05-16T12:01:38.332Z,649.00
2023-05-16T12:02:38.465Z,720.00
2023-05-16T12:03:38.643Z,748.00
2023-05-16T12:04:38.493Z,715.00
2023-05-16T12:05:38.494Z,669.00
2023-05-16T12:06:38.821Z,654.00
2023-05-16T12:07:38.404Z,658.00
2023-05-16T12:08:38.826Z,642.00
2023-05-16T12:09:38.438Z,652.00
2023-05-16T12:10:38.449Z,661.00
2023-05-16T12:11:38.467Z,668.00
2023-05-16T12:12:38.828Z,676.00
2023-05-16T12:13:38.489Z,686.00
2023-05-16T12:14:38.589Z,676.00
2023-05-16T12:15:38.578Z,694.00
2023-05-16T12:16:38.676Z,716.00
2023-05-16T12:17:46.255Z,708.00
2023-05-16T12:18:41.224Z,711.00
2023-05-16T12:19:38.604Z,712.00
2023-05-16T12:20:38.601Z,722.00
2023-05-16T12:21:38.839Z,734.00
2023-05-16T12:22:39.283Z,780.00
2023-05-16T12:23:38.587Z,815.00
2023-05-16T12:24:38.561Z,835.00
2023-05-16T12:25:38.601Z,844.00
2023-05-16T12:26:38.756Z,851.00
2023-05-16T12:27:40.947Z,858.00
2023-05-16T12:28:38.776Z,878.00
2023-05-16T12:29:38.769Z,898.00
2023-05-16T12:30:38.956Z,904.00